createdAt,value
2018-01-02T00:00:48.100Z,49.15
2018-01-02T00:01:48.097Z,49.24
2018-01-02T00:02:48.099Z,49.05
2018-01-02T00:03:48.102Z,49.24
2018-01-02T00:04:48.102Z,49.24
2018-01-02T00:05:48.103Z,49.05
2018-01-02T00:06:48.106Z,49.05
2018-01-02T00:07:48.108Z,49.24
2018-01-02T00:08:48.110Z,49.24
2018-01-02T00:09:48.111Z,49.15
2018-01-02T00:10:48.112Z,49.24
2018-01-02T00:11:48.115Z,49.15
2018-01-02T00:12:48.117Z,48.86
2018-01-02T00:13:48.118Z,49.05
2018-01-02T00:14:48.120Z,48.95
2018-01-02T00:15:48.122Z,49.24
2018-01-02T00:16:48.124Z,49.05
2018-01-02T00:17:48.152Z,49.05
2018-01-02T00:18:48.127Z,49.05
2018-01-02T00:19:48.130Z,48.95
2018-01-02T00:20:48.130Z,49.05
2018-01-02T00:21:48.133Z,48.93
2018-01-02T00:22:48.135Z,48.95
2018-01-02T00:23:48.135Z,49.15
2018-01-02T00:24:48.137Z,49.34
2018-01-02T00:25:48.138Z,49.05
2018-01-02T00:26:48.141Z,48.95
2018-01-02T00:27:48.142Z,48.95
2018-01-02T00:28:48.144Z,49.05
2018-01-02T00:29:48.152Z,49.15
2018-01-02T00:30:48.147Z,49.05
2018-01-02T00:31:48.150Z,49.02
2018-01-02T00:32:48.151Z,48.95
2018-01-02T00:33:48.152Z,49.24
2018-01-02T00:34:48.154Z,48.95
2018-01-02T00:35:48.156Z,49.24
2018-01-02T00:36:48.157Z,49.05
2018-01-02T00:37:48.159Z,49.05
2018-01-02T00:38:48.162Z,48.95
2018-01-02T00:39:48.163Z,49.24
2018-01-02T00:40:48.165Z,48.93
2018-01-02T00:41:48.169Z,49.24
2018-01-02T00:42:48.166Z,49.24
2018-01-02T00:43:48.170Z,48.95
2018-01-02T00:44:48.172Z,48.86
2018-01-02T00:45:48.172Z,49.05
2018-01-02T00:46:48.174Z,49.05
2018-01-02T00:47:48.179Z,48.93
2018-01-02T00:48:48.178Z,48.95
2018-01-02T00:49:48.186Z,48.86
2018-01-02T00:50:48.181Z,48.86
2018-01-02T00:51:48.183Z,48.95
2018-01-02T00:52:48.185Z,48.95
2018-01-02T00:53:48.186Z,48.93
2018-01-02T00:54:48.208Z,48.95
2018-01-02T00:55:48.190Z,49.15
2018-01-02T00:56:48.191Z,48.86
2018-01-02T00:57:48.194Z,48.95
2018-01-02T00:58:48.194Z,49.15
2018-01-02T00:59:48.197Z,49.12
2018-01-02T01:00:48.198Z,48.83
2018-01-02T01:01:48.201Z,48.83
2018-01-02T01:02:48.202Z,48.74
2018-01-02T01:03:48.204Z,49.05
2018-01-02T01:04:48.205Z,48.95
2018-01-02T01:05:48.209Z,48.86
2018-01-02T01:06:48.208Z,48.95
2018-01-02T01:07:48.211Z,48.86
2018-01-02T01:08:48.212Z,48.95
2018-01-02T01:09:48.214Z,48.95
2018-01-02T01:10:48.217Z,48.93
2018-01-02T01:11:48.217Z,48.76
2018-01-02T01:12:48.219Z,48.83
2018-01-02T01:13:48.219Z,48.93
2018-01-02T01:14:48.223Z,49.05
2018-01-02T01:15:48.233Z,48.83
2018-01-02T01:16:48.226Z,48.93
2018-01-02T01:17:48.227Z,48.83
2018-01-02T01:18:48.228Z,48.93
2018-01-02T01:19:48.230Z,48.93
2018-01-02T01:20:48.232Z,48.93
2018-01-02T01:21:48.240Z,48.93
2018-01-02T01:22:48.253Z,48.93
2018-01-02T01:23:48.237Z,48.95
2018-01-02T01:24:48.238Z,48.83
2018-01-02T01:25:48.242Z,48.93
2018-01-02T01:26:48.250Z,48.76
2018-01-02T01:27:48.244Z,49.02
2018-01-02T01:28:48.253Z,48.93
2018-01-02T01:29:48.245Z,48.83
2018-01-02T01:30:48.256Z,48.93
2018-01-02T01:31:48.253Z,48.93
2018-01-02T01:32:48.254Z,48.93
2018-01-02T01:33:48.255Z,48.93
2018-01-02T01:34:48.256Z,48.83
2018-01-02T01:35:48.257Z,48.93
2018-01-02T01:36:48.258Z,48.83
2018-01-02T01:37:48.266Z,48.83
2018-01-02T01:38:48.264Z,48.93
2018-01-02T01:39:48.263Z,48.83
2018-01-02T01:40:48.265Z,48.93
2018-01-02T01:41:48.267Z,48.74
2018-01-02T01:42:48.268Z,48.93
2018-01-02T01:43:48.270Z,48.74
2018-01-02T01:44:48.271Z,48.93
2018-01-02T01:45:48.272Z,48.93
2018-01-02T01:46:48.283Z,48.83
2018-01-02T01:47:48.275Z,49.12
2018-01-02T01:48:48.278Z,48.93
2018-01-02T01:49:48.280Z,48.64
2018-01-02T01:50:48.280Z,48.83
2018-01-02T01:51:48.282Z,48.83
2018-01-02T01:52:48.286Z,48.93
2018-01-02T01:53:48.287Z,48.93
2018-01-02T01:54:48.289Z,48.93
2018-01-02T01:55:48.289Z,48.93
2018-01-02T01:56:48.290Z,48.74
2018-01-02T01:57:48.291Z,48.93
2018-01-02T01:58:48.295Z,49.02
2018-01-02T01:59:48.304Z,48.93
2018-01-02T02:00:48.297Z,49.02
2018-01-02T02:01:48.298Z,49.12
2018-01-02T02:02:48.299Z,49.12
2018-01-02T02:03:48.301Z,49.12
2018-01-02T02:04:48.313Z,49.12
2018-01-02T02:05:48.305Z,49.12
2018-01-02T02:06:48.306Z,48.93
2018-01-02T02:07:48.308Z,48.93
2018-01-02T02:08:48.310Z,49.02
2018-01-02T02:09:48.311Z,49.02
2018-01-02T02:10:48.316Z,49.02
2018-01-02T02:11:48.315Z,49.12
2018-01-02T02:12:48.319Z,49.22
2018-01-02T02:13:48.317Z,48.83
2018-01-02T02:14:48.324Z,48.93
2018-01-02T02:15:48.323Z,48.83
2018-01-02T02:16:48.323Z,49.02
2018-01-02T02:17:48.325Z,49.02
2018-01-02T02:18:48.326Z,49.02
2018-01-02T02:19:48.327Z,49.12
2018-01-02T02:20:48.330Z,49.12
2018-01-02T02:21:48.330Z,49.02
2018-01-02T02:22:48.333Z,49.12
2018-01-02T02:23:48.333Z,49.02
2018-01-02T02:24:48.336Z,49.02
2018-01-02T02:25:48.338Z,48.93
2018-01-02T02:26:48.338Z,48.93
2018-01-02T02:27:48.350Z,49.22
2018-01-02T02:28:48.349Z,49.22
2018-01-02T02:29:48.350Z,49.02
2018-01-02T02:30:48.351Z,49.02
2018-01-02T02:31:48.350Z,49.02
2018-01-02T02:32:48.350Z,49.02
2018-01-02T02:33:48.350Z,49.22
2018-01-02T02:34:48.353Z,49.12
2018-01-02T02:35:48.353Z,48.93
2018-01-02T02:36:48.356Z,49.22
2018-01-02T02:37:48.362Z,49.12
2018-01-02T02:38:48.369Z,48.93
2018-01-02T02:39:48.361Z,49.22
2018-01-02T02:40:48.362Z,49.22
2018-01-02T02:41:48.363Z,49.12
2018-01-02T02:42:48.365Z,49.22
2018-01-02T02:43:48.367Z,49.12
2018-01-02T02:44:48.369Z,49.22
2018-01-02T02:45:48.370Z,49.41
2018-01-02T02:46:48.378Z,49.22
2018-01-02T02:47:48.374Z,48.93
2018-01-02T02:48:48.375Z,49.02
2018-01-02T02:49:48.380Z,49.02
2018-01-02T02:50:48.379Z,49.12
2018-01-02T02:51:48.379Z,49.12
2018-01-02T02:52:48.381Z,48.83
2018-01-02T02:53:48.381Z,49.02
2018-01-02T02:54:48.383Z,49.02
2018-01-02T02:55:48.386Z,48.93
2018-01-02T02:56:48.388Z,49.22
2018-01-02T02:57:48.389Z,49.12
2018-01-02T02:58:48.390Z,49.22
2018-01-02T02:59:48.392Z,49.22
2018-01-02T03:00:48.394Z,49.22
2018-01-02T03:01:48.395Z,49.12
2018-01-02T03:02:48.396Z,49.12
2018-01-02T03:03:48.399Z,49.02
2018-01-02T03:04:48.401Z,49.12
2018-01-02T03:05:48.400Z,49.22
2018-01-02T03:06:48.403Z,49.22
2018-01-02T03:07:48.405Z,49.02
2018-01-02T03:08:48.407Z,49.41
2018-01-02T03:09:48.407Z,48.74
2018-01-02T03:10:48.409Z,48.83
2018-01-02T03:11:48.411Z,48.83
2018-01-02T03:12:48.414Z,49.22
2018-01-02T03:13:48.415Z,49.32
2018-01-02T03:14:48.416Z,49.22
2018-01-02T03:15:48.418Z,49.22
2018-01-02T03:16:48.424Z,48.54
2018-01-02T03:17:48.420Z,48.64
2018-01-02T03:18:48.423Z,48.64
2018-01-02T03:19:48.424Z,48.54
2018-01-02T03:20:48.426Z,48.83
2018-01-02T03:21:48.426Z,48.54
2018-01-02T03:22:48.428Z,48.83
2018-01-02T03:23:48.435Z,48.74
2018-01-02T03:24:48.433Z,48.54
2018-01-02T03:25:48.434Z,48.64
2018-01-02T03:26:48.435Z,48.83
2018-01-02T03:27:48.446Z,48.64
2018-01-02T03:28:48.438Z,48.54
2018-01-02T03:29:48.439Z,48.54
2018-01-02T03:30:48.442Z,49.12
2018-01-02T03:31:48.442Z,48.83
2018-01-02T03:32:48.444Z,48.54
2018-01-02T03:33:48.445Z,48.64
2018-01-02T03:34:48.447Z,48.64
2018-01-02T03:35:48.449Z,48.44
2018-01-02T03:36:48.451Z,48.64
2018-01-02T03:37:48.451Z,48.54
2018-01-02T03:38:48.454Z,48.64
2018-01-02T03:39:48.455Z,48.54
2018-01-02T03:40:48.457Z,48.54
2018-01-02T03:41:48.458Z,48.74
2018-01-02T03:42:48.459Z,48.54
2018-01-02T03:43:48.461Z,48.44
2018-01-02T03:44:48.464Z,48.54
2018-01-02T03:45:48.465Z,48.74
2018-01-02T03:46:48.465Z,48.64
2018-01-02T03:47:48.471Z,48.74
2018-01-02T03:48:48.468Z,48.93
2018-01-02T03:49:48.469Z,48.64
2018-01-02T03:50:48.472Z,48.64
2018-01-02T03:51:48.474Z,48.74
2018-01-02T03:52:48.474Z,48.54
2018-01-02T03:53:48.476Z,48.54
2018-01-02T03:54:48.478Z,48.64
2018-01-02T03:55:48.484Z,48.64
2018-01-02T03:56:48.481Z,48.93
2018-01-02T03:57:48.482Z,48.83
2018-01-02T03:58:48.485Z,48.83
2018-01-02T03:59:48.487Z,48.93
2018-01-02T04:00:48.488Z,48.93
2018-01-02T04:01:48.491Z,48.64
2018-01-02T04:02:48.491Z,48.74
2018-01-02T04:03:48.492Z,48.93
2018-01-02T04:04:48.494Z,48.64
2018-01-02T04:05:48.495Z,48.93
2018-01-02T04:06:48.497Z,48.93
2018-01-02T04:07:48.498Z,48.74
2018-01-02T04:08:48.501Z,48.64
2018-01-02T04:09:48.518Z,48.64
2018-01-02T04:10:48.503Z,48.64
2018-01-02T04:11:48.511Z,48.74
2018-01-02T04:12:48.505Z,48.74
2018-01-02T04:13:48.508Z,48.93
2018-01-02T04:14:48.509Z,48.93
2018-01-02T04:15:48.510Z,48.74
2018-01-02T04:16:48.513Z,48.83
2018-01-02T04:17:48.514Z,48.54
2018-01-02T04:18:48.520Z,48.35
2018-01-02T04:19:48.517Z,48.74
2018-01-02T04:20:48.519Z,48.54
2018-01-02T04:21:48.522Z,48.64
2018-01-02T04:22:48.522Z,48.44
2018-01-02T04:23:48.524Z,48.64
2018-01-02T04:24:48.526Z,48.54
2018-01-02T04:25:48.526Z,48.64
2018-01-02T04:26:48.529Z,48.44
2018-01-02T04:27:48.530Z,48.83
2018-01-02T04:28:48.533Z,48.64
2018-01-02T04:29:48.536Z,48.44
2018-01-02T04:30:48.535Z,48.83
2018-01-02T04:31:48.538Z,48.64
2018-01-02T04:32:48.541Z,48.64
2018-01-02T04:33:48.541Z,48.64
2018-01-02T04:34:48.542Z,48.74
2018-01-02T04:35:48.544Z,48.54
2018-01-02T04:36:48.546Z,48.74
2018-01-02T04:37:48.548Z,48.93
2018-01-02T04:38:48.549Z,48.74
2018-01-02T04:39:48.552Z,48.74
2018-01-02T04:40:48.553Z,48.74
2018-01-02T04:41:48.554Z,48.93
2018-01-02T04:42:48.557Z,48.74
2018-01-02T04:43:48.560Z,48.93
2018-01-02T04:44:48.561Z,48.64
2018-01-02T04:45:48.561Z,48.93
2018-01-02T04:46:48.567Z,48.74
2018-01-02T04:47:48.575Z,48.54
2018-01-02T04:48:48.567Z,48.83
2018-01-02T04:49:48.570Z,48.93
2018-01-02T04:50:48.570Z,48.83
2018-01-02T04:51:48.571Z,48.44
2018-01-02T04:52:48.574Z,48.64
2018-01-02T04:53:48.575Z,48.64
2018-01-02T04:54:48.579Z,48.74
2018-01-02T04:55:48.580Z,48.83
2018-01-02T04:56:48.581Z,48.54
2018-01-02T04:57:48.582Z,48.74
2018-01-02T04:58:48.584Z,48.83
2018-01-02T04:59:48.586Z,48.74
2018-01-02T05:00:48.590Z,48.54
2018-01-02T05:01:48.589Z,48.54
2018-01-02T05:02:48.591Z,48.74
2018-01-02T05:03:48.593Z,48.83
2018-01-02T05:04:48.596Z,47.97
2018-01-02T05:05:48.596Z,48.06
2018-01-02T05:06:48.598Z,48.35
2018-01-02T05:07:48.600Z,48.16
2018-01-02T05:08:48.603Z,48.64
2018-01-02T05:09:48.603Z,48.93
2018-01-02T05:10:48.604Z,48.93
2018-01-02T05:11:48.607Z,48.93
2018-01-02T05:12:48.609Z,49.12
2018-01-02T05:13:48.611Z,49.22
2018-01-02T05:14:48.612Z,49.02
2018-01-02T05:15:48.614Z,49.12
2018-01-02T05:16:48.615Z,49.51
2018-01-02T05:17:48.617Z,49.02
2018-01-02T05:18:48.619Z,49.12
2018-01-02T05:19:48.620Z,49.15
2018-01-02T05:20:48.623Z,49.34
2018-01-02T05:21:48.629Z,49.51
2018-01-02T05:22:48.628Z,49.63
2018-01-02T05:23:48.629Z,49.63
2018-01-02T05:24:48.632Z,49.82
2018-01-02T05:25:48.632Z,49.32
2018-01-02T05:26:48.633Z,49.05
2018-01-02T05:27:48.636Z,49.02
2018-01-02T05:28:48.638Z,49.15
2018-01-02T05:29:48.639Z,49.43
2018-01-02T05:30:48.641Z,49.43
2018-01-02T05:31:48.644Z,49.63
2018-01-02T05:32:48.649Z,50.30
2018-01-02T05:33:48.647Z,50.30
2018-01-02T05:34:48.650Z,49.43
2018-01-02T05:35:48.654Z,50.11
2018-01-02T05:36:48.657Z,49.91
2018-01-02T05:37:48.655Z,50.40
2018-01-02T05:38:48.657Z,50.30
2018-01-02T05:39:48.659Z,50.69
2018-01-02T05:40:48.662Z,50.30
2018-01-02T05:41:48.669Z,49.91
2018-01-02T05:42:48.665Z,49.91
2018-01-02T05:43:48.667Z,50.40
2018-01-02T05:44:48.671Z,50.69
2018-01-02T05:45:48.671Z,50.98
2018-01-02T05:46:48.674Z,51.26
2018-01-02T05:47:48.676Z,51.56
2018-01-02T05:48:48.677Z,51.17
2018-01-02T05:49:48.679Z,51.17
2018-01-02T05:50:48.681Z,51.26
2018-01-02T05:51:48.684Z,51.26
2018-01-02T05:52:48.685Z,51.46
2018-01-02T05:53:48.684Z,51.84
2018-01-02T05:54:48.689Z,51.75
2018-01-02T05:55:48.691Z,52.13
2018-01-02T05:56:48.694Z,51.65
2018-01-02T05:57:48.694Z,52.23
2018-01-02T05:58:48.696Z,52.33
2018-01-02T05:59:48.698Z,52.33
2018-01-02T06:00:48.700Z,52.04
2018-01-02T06:01:48.702Z,51.94
2018-01-02T06:02:48.704Z,52.33
2018-01-02T06:03:48.706Z,52.04
2018-01-02T06:04:48.708Z,52.52
2018-01-02T06:05:48.709Z,52.33
2018-01-02T06:06:48.710Z,52.23
2018-01-02T06:07:48.713Z,52.33
2018-01-02T06:08:48.715Z,53.09
2018-01-02T06:09:48.717Z,52.42
2018-01-02T06:10:48.734Z,52.13
2018-01-02T06:11:48.720Z,52.42
2018-01-02T06:12:48.722Z,52.42
2018-01-02T06:13:48.724Z,53.09
2018-01-02T06:14:48.726Z,52.52
2018-01-02T06:15:48.728Z,52.42
2018-01-02T06:16:48.733Z,52.81
2018-01-02T06:17:48.730Z,53.09
2018-01-02T06:18:48.735Z,52.71
2018-01-02T06:19:48.736Z,52.61
2018-01-02T06:20:48.738Z,52.91
2018-01-02T06:21:48.739Z,52.52
2018-01-02T06:22:48.740Z,52.81
2018-01-02T06:23:48.751Z,52.61
2018-01-02T06:24:48.744Z,52.71
2018-01-02T06:25:48.745Z,53.00
2018-01-02T06:26:48.747Z,52.71
2018-01-02T06:27:48.749Z,52.81
2018-01-02T06:28:48.750Z,52.71
2018-01-02T06:29:48.754Z,53.00
2018-01-02T06:30:48.753Z,53.00
2018-01-02T06:31:48.755Z,53.00
2018-01-02T06:32:48.757Z,53.00
2018-01-02T06:33:48.758Z,53.00
2018-01-02T06:34:48.760Z,52.81
2018-01-02T06:35:48.821Z,53.00
2018-01-02T06:36:48.763Z,53.09
2018-01-02T06:37:48.764Z,52.61
2018-01-02T06:38:48.766Z,53.29
2018-01-02T06:39:48.770Z,53.19
2018-01-02T06:40:48.773Z,53.00
2018-01-02T06:41:48.771Z,52.91
2018-01-02T06:42:48.773Z,52.81
2018-01-02T06:43:48.775Z,52.71
2018-01-02T06:44:48.776Z,52.91
2018-01-02T06:45:48.778Z,52.91
2018-01-02T06:46:48.780Z,52.81
2018-01-02T06:47:48.782Z,53.39
2018-01-02T06:48:48.784Z,52.91
2018-01-02T06:49:48.790Z,53.39
2018-01-02T06:50:48.787Z,53.19
2018-01-02T06:51:48.789Z,53.00
2018-01-02T06:52:48.791Z,52.91
2018-01-02T06:53:48.793Z,53.00
2018-01-02T06:54:48.795Z,52.61
2018-01-02T06:55:48.797Z,53.48
2018-01-02T06:56:48.797Z,53.77
2018-01-02T06:57:48.798Z,53.29
2018-01-02T06:58:48.800Z,53.29
2018-01-02T06:59:48.804Z,53.19
2018-01-02T07:00:48.804Z,52.91
2018-01-02T07:01:48.805Z,53.58
2018-01-02T07:02:48.809Z,53.29
2018-01-02T07:03:48.809Z,53.29
2018-01-02T07:04:48.810Z,53.27
2018-01-02T07:05:48.812Z,53.58
2018-01-02T07:06:48.814Z,53.77
2018-01-02T07:07:48.822Z,53.77
2018-01-02T07:08:48.817Z,54.06
2018-01-02T07:09:48.822Z,53.77
2018-01-02T07:10:48.819Z,53.48
2018-01-02T07:11:48.827Z,53.29
2018-01-02T07:12:48.828Z,53.77
2018-01-02T07:13:48.829Z,53.87
2018-01-02T07:14:48.830Z,53.87
2018-01-02T07:15:48.831Z,53.39
2018-01-02T07:16:48.834Z,52.81
2018-01-02T07:17:48.833Z,53.48
2018-01-02T07:18:48.831Z,53.96
2018-01-02T07:19:48.833Z,54.16
2018-01-02T07:20:48.835Z,54.16
2018-01-02T07:21:48.836Z,54.06
2018-01-02T07:22:48.838Z,53.77
2018-01-02T07:23:48.843Z,53.39
2018-01-02T07:24:48.840Z,53.77
2018-01-02T07:25:48.842Z,53.48
2018-01-02T07:26:48.848Z,53.39
2018-01-02T07:27:48.847Z,53.09
2018-01-02T07:28:48.846Z,53.87
2018-01-02T07:29:48.851Z,53.29
2018-01-02T07:30:48.850Z,53.48
2018-01-02T07:31:48.852Z,53.87
2018-01-02T07:32:48.854Z,53.87
2018-01-02T07:33:48.855Z,54.16
2018-01-02T07:34:48.856Z,53.67
2018-01-02T07:35:48.859Z,53.77
2018-01-02T07:36:48.860Z,54.44
2018-01-02T07:37:48.862Z,54.25
2018-01-02T07:38:48.864Z,54.06
2018-01-02T07:39:48.864Z,53.96
2018-01-02T07:40:48.867Z,54.06
2018-01-02T07:41:48.868Z,54.44
2018-01-02T07:42:48.869Z,53.67
2018-01-02T07:43:48.872Z,54.06
2018-01-02T07:44:48.879Z,54.64
2018-01-02T07:45:48.874Z,54.74
2018-01-02T07:46:48.877Z,54.64
2018-01-02T07:47:48.878Z,54.35
2018-01-02T07:48:48.880Z,53.77
2018-01-02T07:49:48.882Z,53.96
2018-01-02T07:50:48.882Z,53.96
2018-01-02T07:51:48.884Z,53.87
2018-01-02T07:52:48.886Z,54.06
2018-01-02T07:53:48.887Z,53.87
2018-01-02T07:54:48.889Z,53.87
2018-01-02T07:55:48.891Z,53.96
2018-01-02T07:56:48.894Z,54.06
2018-01-02T07:57:48.893Z,53.77
2018-01-02T07:58:48.897Z,53.29
2018-01-02T07:59:48.896Z,53.48
2018-01-02T08:00:48.900Z,54.06
2018-01-02T08:01:48.902Z,53.87
2018-01-02T08:02:48.903Z,54.06
2018-01-02T08:03:48.904Z,53.96
2018-01-02T08:04:48.906Z,53.87
2018-01-02T08:05:48.907Z,53.96
2018-01-02T08:06:48.909Z,53.29
2018-01-02T08:07:48.911Z,53.77
2018-01-02T08:08:48.913Z,53.58
2018-01-02T08:09:48.915Z,54.06
2018-01-02T08:10:48.916Z,53.39
2018-01-02T08:11:48.918Z,53.29
2018-01-02T08:12:48.919Z,54.06
2018-01-02T08:13:48.920Z,53.87
2018-01-02T08:14:48.922Z,53.96
2018-01-02T08:15:48.930Z,54.06
2018-01-02T08:16:48.926Z,53.87
2018-01-02T08:17:48.926Z,54.06
2018-01-02T08:18:48.927Z,54.16
2018-01-02T08:19:48.932Z,53.67
2018-01-02T08:20:48.932Z,53.67
2018-01-02T08:21:48.933Z,53.39
2018-01-02T08:22:48.941Z,52.81
2018-01-02T08:23:48.962Z,52.23
2018-01-02T08:24:48.938Z,51.84
2018-01-02T08:25:48.943Z,50.59
2018-01-02T08:26:48.941Z,50.49
2018-01-02T08:27:48.943Z,49.63
2018-01-02T08:28:48.944Z,48.57
2018-01-02T08:29:48.945Z,48.28
2018-01-02T08:30:48.947Z,47.89
2018-01-02T08:31:48.952Z,47.51
2018-01-02T08:32:48.992Z,47.12
2018-01-02T08:33:48.950Z,47.51
2018-01-02T08:34:48.951Z,46.64
2018-01-02T08:35:48.954Z,46.35
2018-01-02T08:36:48.954Z,45.87
2018-01-02T08:37:49.010Z,45.39
2018-01-02T08:38:48.963Z,46.83
2018-01-02T08:39:48.958Z,45.10
2018-01-02T08:40:48.998Z,44.42
2018-01-02T08:41:48.966Z,45.29
2018-01-02T08:42:48.962Z,44.62
2018-01-02T08:43:48.964Z,43.75
2018-01-02T08:44:48.964Z,43.85
2018-01-02T08:45:48.967Z,43.75
2018-01-02T08:46:48.966Z,43.55
2018-01-02T08:47:48.969Z,43.55
2018-01-02T08:48:48.971Z,43.65
2018-01-02T08:49:48.970Z,43.07
2018-01-02T08:50:48.971Z,42.97
2018-01-02T08:51:48.974Z,42.97
2018-01-02T08:52:48.975Z,43.46
2018-01-02T08:53:48.976Z,43.75
2018-01-02T08:54:48.978Z,44.32
2018-01-02T08:55:48.980Z,45.20
2018-01-02T08:56:48.980Z,45.29
2018-01-02T08:57:48.984Z,46.45
2018-01-02T08:58:48.984Z,46.73
2018-01-02T08:59:48.985Z,46.55
2018-01-02T09:00:48.987Z,47.60
2018-01-02T09:01:48.989Z,47.70
2018-01-02T09:02:48.991Z,48.08
2018-01-02T09:03:48.994Z,48.86
2018-01-02T09:04:49.001Z,48.76
2018-01-02T09:05:48.995Z,49.53
2018-01-02T09:06:48.997Z,48.95
2018-01-02T09:07:49.004Z,49.34
2018-01-02T09:08:49.002Z,50.01
2018-01-02T09:09:49.003Z,50.11
2018-01-02T09:10:49.005Z,49.82
2018-01-02T09:11:49.008Z,50.21
2018-01-02T09:12:49.010Z,50.11
2018-01-02T09:13:49.010Z,50.88
2018-01-02T09:14:49.014Z,51.46
2018-01-02T09:15:49.023Z,51.56
2018-01-02T09:16:49.019Z,51.26
2018-01-02T09:17:49.018Z,51.26
2018-01-02T09:18:49.022Z,51.46
2018-01-02T09:19:49.023Z,51.36
2018-01-02T09:20:49.033Z,51.17
2018-01-02T09:21:49.036Z,51.46
2018-01-02T09:22:49.037Z,51.84
2018-01-02T09:23:49.044Z,51.94
2018-01-02T09:24:49.037Z,52.23
2018-01-02T09:25:49.034Z,52.13
2018-01-02T09:26:49.037Z,52.04
2018-01-02T09:27:49.039Z,52.23
2018-01-02T09:28:49.043Z,52.13
2018-01-02T09:29:49.043Z,52.13
2018-01-02T09:30:49.045Z,52.52
2018-01-02T09:31:49.048Z,52.33
2018-01-02T09:32:49.052Z,52.42
2018-01-02T09:33:49.051Z,52.52
2018-01-02T09:34:49.055Z,52.71
2018-01-02T09:35:49.056Z,52.42
2018-01-02T09:36:49.058Z,52.33
2018-01-02T09:37:49.059Z,53.09
2018-01-02T09:38:49.060Z,52.71
2018-01-02T09:39:49.064Z,52.23
2018-01-02T09:40:49.066Z,51.75
2018-01-02T09:41:49.069Z,51.46
2018-01-02T09:42:49.070Z,51.07
2018-01-02T09:43:49.072Z,50.30
2018-01-02T09:44:49.074Z,48.57
2018-01-02T09:45:49.076Z,48.86
2018-01-02T09:46:49.078Z,48.66
2018-01-02T09:47:49.081Z,47.70
2018-01-02T09:48:49.082Z,47.03
2018-01-02T09:49:49.084Z,46.35
2018-01-02T09:50:49.085Z,46.83
2018-01-02T09:51:49.090Z,46.64
2018-01-02T09:52:49.091Z,46.73
2018-01-02T09:53:49.091Z,45.87
2018-01-02T09:54:49.096Z,45.10
2018-01-02T09:55:49.096Z,44.90
2018-01-02T09:56:49.097Z,45.29
2018-01-02T09:57:49.099Z,44.62
2018-01-02T09:58:49.103Z,44.71
2018-01-02T09:59:49.109Z,44.81
2018-01-02T10:00:49.107Z,44.71
2018-01-02T10:01:49.109Z,44.04
2018-01-02T10:02:49.109Z,43.75
2018-01-02T10:03:49.114Z,43.94
2018-01-02T10:04:49.114Z,43.65
2018-01-02T10:05:49.120Z,43.94
2018-01-02T10:06:49.120Z,43.46
2018-01-02T10:07:49.123Z,42.88
2018-01-02T10:08:49.129Z,42.97
2018-01-02T10:09:49.125Z,42.69
2018-01-02T10:10:49.126Z,42.40
2018-01-02T10:11:49.136Z,42.97
2018-01-02T10:12:49.130Z,42.97
2018-01-02T10:13:49.134Z,42.52
2018-01-02T10:14:49.134Z,42.59
2018-01-02T10:15:49.138Z,42.90
2018-01-02T10:16:49.141Z,43.75
2018-01-02T10:17:49.140Z,43.87
2018-01-02T10:18:49.144Z,43.87
2018-01-02T10:19:49.145Z,44.81
2018-01-02T10:20:49.148Z,44.93
2018-01-02T10:21:49.150Z,45.29
2018-01-02T10:22:49.152Z,45.51
2018-01-02T10:23:49.154Z,46.06
2018-01-02T10:24:49.157Z,46.18
2018-01-02T10:25:49.158Z,46.56
2018-01-02T10:26:49.161Z,46.56
2018-01-02T10:27:49.163Z,47.14
2018-01-02T10:28:49.187Z,47.05
2018-01-02T10:29:49.167Z,47.44
2018-01-02T10:30:49.170Z,47.53
2018-01-02T10:31:49.172Z,47.63
2018-01-02T10:32:49.174Z,47.92
2018-01-02T10:33:49.176Z,47.82
2018-01-02T10:34:49.178Z,47.92
2018-01-02T10:35:49.202Z,48.30
2018-01-02T10:36:49.183Z,48.88
2018-01-02T10:37:49.184Z,48.59
2018-01-02T10:38:49.187Z,48.59
2018-01-02T10:39:49.190Z,48.59
2018-01-02T10:40:49.192Z,49.17
2018-01-02T10:41:49.194Z,49.17
2018-01-02T10:42:49.197Z,49.17
2018-01-02T10:43:49.209Z,48.88
2018-01-02T10:44:49.202Z,49.46
2018-01-02T10:45:49.203Z,49.37
2018-01-02T10:46:49.206Z,48.97
2018-01-02T10:47:49.208Z,49.27
2018-01-02T10:48:49.210Z,49.27
2018-01-02T10:49:49.213Z,49.27
2018-01-02T10:50:49.214Z,49.37
2018-01-02T10:51:49.226Z,49.27
2018-01-02T10:52:49.219Z,48.40
2018-01-02T10:53:49.221Z,48.11
2018-01-02T10:54:49.224Z,47.72
2018-01-02T10:55:49.226Z,47.44
2018-01-02T10:56:49.228Z,46.47
2018-01-02T10:57:49.231Z,45.21
2018-01-02T10:58:49.233Z,45.51
2018-01-02T10:59:49.235Z,45.03
2018-01-02T11:00:49.237Z,44.54
2018-01-02T11:01:49.284Z,44.06
2018-01-02T11:02:49.241Z,43.67
2018-01-02T11:03:49.243Z,43.38
2018-01-02T11:04:49.247Z,43.48
2018-01-02T11:05:49.247Z,42.90
2018-01-02T11:06:49.249Z,42.90
2018-01-02T11:07:49.252Z,42.42
2018-01-02T11:08:49.255Z,42.13
2018-01-02T11:09:49.256Z,42.52
2018-01-02T11:10:49.258Z,42.23
2018-01-02T11:11:49.260Z,41.94
2018-01-02T11:12:49.265Z,41.65
2018-01-02T11:13:49.265Z,41.17
2018-01-02T11:14:49.267Z,40.88
2018-01-02T11:15:49.270Z,40.88
2018-01-02T11:16:49.273Z,40.97
2018-01-02T11:17:49.283Z,41.46
2018-01-02T11:18:49.277Z,41.75
2018-01-02T11:19:49.279Z,42.23
2018-01-02T11:20:49.283Z,42.90
2018-01-02T11:21:49.283Z,43.29
2018-01-02T11:22:49.286Z,42.90
2018-01-02T11:23:49.288Z,43.38
2018-01-02T11:24:49.291Z,43.38
2018-01-02T11:25:49.292Z,43.77
2018-01-02T11:26:49.294Z,43.96
2018-01-02T11:27:49.297Z,44.15
2018-01-02T11:28:49.305Z,44.93
2018-01-02T11:29:49.301Z,44.64
2018-01-02T11:30:49.302Z,44.45
2018-01-02T11:31:49.306Z,44.93
2018-01-02T11:32:49.308Z,45.21
2018-01-02T11:33:49.311Z,45.31
2018-01-02T11:34:49.313Z,45.31
2018-01-02T11:35:49.315Z,45.41
2018-01-02T11:36:49.315Z,45.70
2018-01-02T11:37:49.319Z,45.31
2018-01-02T11:38:49.323Z,45.70
2018-01-02T11:39:49.327Z,45.70
2018-01-02T11:40:49.324Z,46.08
2018-01-02T11:41:49.329Z,46.08
2018-01-02T11:42:49.331Z,45.89
2018-01-02T11:43:49.343Z,46.37
2018-01-02T11:44:49.337Z,46.47
2018-01-02T11:45:49.338Z,46.47
2018-01-02T11:46:49.340Z,46.47
2018-01-02T11:47:49.341Z,46.47
2018-01-02T11:48:49.345Z,46.37
2018-01-02T11:49:49.346Z,46.66
2018-01-02T11:50:49.348Z,46.66
2018-01-02T11:51:49.350Z,46.56
2018-01-02T11:52:49.354Z,46.47
2018-01-02T11:53:49.354Z,46.95
2018-01-02T11:54:49.356Z,46.66
2018-01-02T11:55:49.360Z,47.05
2018-01-02T11:56:49.362Z,46.66
2018-01-02T11:57:49.363Z,46.66
2018-01-02T11:58:49.367Z,46.56
2018-01-02T11:59:49.369Z,47.05
2018-01-02T12:00:49.370Z,47.34
2018-01-02T12:01:49.373Z,46.86
2018-01-02T12:02:49.376Z,47.05
2018-01-02T12:03:49.378Z,47.24
2018-01-02T12:04:49.382Z,47.24
2018-01-02T12:05:49.383Z,47.14
2018-01-02T12:06:49.386Z,47.24
2018-01-02T12:07:49.388Z,47.05
2018-01-02T12:08:49.390Z,47.34
2018-01-02T12:09:49.396Z,46.95
2018-01-02T12:10:49.393Z,46.76
2018-01-02T12:11:49.396Z,47.44
2018-01-02T12:12:49.399Z,46.95
2018-01-02T12:13:49.402Z,47.14
2018-01-02T12:14:49.403Z,47.14
2018-01-02T12:15:49.424Z,47.24
2018-01-02T12:16:49.418Z,47.24
2018-01-02T12:17:49.413Z,47.24
2018-01-02T12:18:49.414Z,47.24
2018-01-02T12:19:49.416Z,47.24
2018-01-02T12:20:49.420Z,47.14
2018-01-02T12:21:49.420Z,47.24
2018-01-02T12:22:49.424Z,47.24
2018-01-02T12:23:49.425Z,47.24
2018-01-02T12:24:49.433Z,47.34
2018-01-02T12:25:49.431Z,47.14
2018-01-02T12:26:49.433Z,47.24
2018-01-02T12:27:49.437Z,47.14
2018-01-02T12:28:49.437Z,47.05
2018-01-02T12:29:49.440Z,47.24
2018-01-02T12:30:49.441Z,47.05
2018-01-02T12:31:49.445Z,47.24
2018-01-02T12:32:49.446Z,47.24
2018-01-02T12:33:49.449Z,47.24
2018-01-02T12:34:49.452Z,47.05
2018-01-02T12:35:49.454Z,47.14
2018-01-02T12:36:49.456Z,47.14
2018-01-02T12:37:49.458Z,47.44
2018-01-02T12:38:49.460Z,46.86
2018-01-02T12:39:49.464Z,47.34
2018-01-02T12:40:49.466Z,47.34
2018-01-02T12:41:49.467Z,47.24
2018-01-02T12:42:49.470Z,47.14
2018-01-02T12:43:49.473Z,46.86
2018-01-02T12:44:49.475Z,46.56
2018-01-02T12:45:49.477Z,46.37
2018-01-02T12:46:49.479Z,45.89
2018-01-02T12:47:49.482Z,45.21
2018-01-02T12:48:49.488Z,44.93
2018-01-02T12:49:49.487Z,44.35
2018-01-02T12:50:49.489Z,44.06
2018-01-02T12:51:49.491Z,44.35
2018-01-02T12:52:49.493Z,43.77